Aérodrome :
LOGIN :

S'inscrire | Disclaimer

   EN    FR    IT 

 










Légende :    VFR   VFR Marginal   IFR   IFR Intensif   IFR Très Intensif
Visi : 
Plafond : 
>= 8 km
>= 3000ft
5 à 8 km
1000 à 3000 ft
1500m à 5 km
500 à 1000 ft
800 à 1500m
200 à 500 ft
< 800m
< 200 ft
Symboles :   Orages  Brouillard  Fortes neiges  Fortes précipitations  Vent > 20 kt
SIGMETs :   Divers  Orages  Givrage  Turbulence  Onde Orograph.  Cendres Volcan.






- Altitude de l'aérodrome : 135 ft
- Code IATA : TLV


LLBG - Ben Gurion

DERNIER METAR :
  • 050720Z VRB03KT CAVOK 26/16 Q1015 NOSIG

METARs EXPIRÉS :
  • 050650Z VRB03KT CAVOK 25/16 Q1015 NOSIG
  • 050620Z 36005KT 310V080 9999 FEW020 24/17 Q1015 NOSIG
  • 050550Z 36006KT 330V030 9999 FEW020 23/16 Q1015 NOSIG
  • 050520Z 04007KT 9999 SCT020 22/17 Q1015 NOSIG
  • 050450Z 04006KT 9999 FEW020 22/17 Q1015 NOSIG

TAF TAF LLBG
Valide du 05 à 06h jusqu'au 06 à 06h UTC


050501Z 0506/0606 36007KT 9999 FEW020
BECMG 0507/0509 34015KT CAVOK
BECMG 0515/0517 36005KT
BECMG 0521/0523 VRB03KT 9999 FEW015
PROB40 0523/0604 7000 SCT012 TX29/0511Z TN19/0603Z
FIR LLLL / Asie



MET'MAP, la Météo Aéronautique d'un coup d'oeil ! - Copyright ORBIFLY Décembre 2007 - Disclaimer

ORBIFLY MET'MAP TEAM :

Programmation & Développement : Alexandra Zaïnal
Sur une idée originale de : Baudouin d'Aumeries
Assistance à la programmation : Marc-Olivier Méhu
Soutien technique & logistique : Manuel Goepfert

Contact : metmap@orbifly.com




SOURCES & CREDITS :

   NOAA